X  Stänga Metar väderdata för luftfart        KNPA Naval Air Station - Pensacola, Florida
Temperatur
58°F Temperatur
21°F Daggpunkt
24% Fuktighet



Vind
8 MPH
13 KM/T
4 M/S
7 KTS



20°
NNÖ
Nuvarande omständigheter

Partly Cloudy Delvis molnigt
Tryck 1024 (hPa) - 30.24 (inHg)
Synlighet 7 (mil) - 11 (km)
Flygplats
Flygplatskod KNPA

Plats: Naval Air Station - Pensacola, Florida
Distans: 1 (mi)

Metar:
METAR KNPA 191656Z AUTO 02007KT 7SM SCT016 14/M06 A3024 RMK AO2 SLP240 T01441061 $

Tid: 02-19-2024 10:56 CST